Time;durP1;ratioP1;P1;durP2;ratioP2;P2;SDS_P1;SDS_P2;PMS_P1;PMS_P2;Temp;Humidity;BMP_temperature;BMP_pressure;BME280_temperature;BME280_humidity;BME280_pressure;Samples;Min_cycle;Max_cycle;Signal;HPM_P1;HPM_P2
2023/10/10 00:02:19;;;;;;;3.73;2.37;;;;;;;;;;5016870;28;20858;-77
2023/10/10 00:04:47;;;;;;;8.17;2.00;;;;;;;;;;5017388;28;20455;-76
2023/10/10 00:07:15;;;;;;;9.33;2.47;;;;;;;;;;5016877;28;20471;-77
2023/10/10 00:09:45;;;;;;;5.53;2.93;;;;;;;;;;5016140;28;21064;-77
2023/10/10 00:12:18;;;;;;;7.73;2.67;;;;;;;;;;5019554;28;20451;-79
2023/10/10 00:14:50;;;;;;;4.60;3.10;;;;;;;;;;5017140;28;20447;-76
2023/10/10 00:17:20;;;;;;;3.93;2.90;;;;;;;;;;5019506;28;20729;-76
2023/10/10 00:19:51;;;;;;;4.37;2.60;;;;;;;;;;5019093;28;20455;-77
2023/10/10 00:22:25;;;;;;;5.53;2.83;;;;;;;;;;5017944;28;20485;-78
2023/10/10 00:24:54;;;;;;;12.60;3.40;;;;;;;;;;5017086;28;20882;-77
2023/10/10 00:27:23;;;;;;;8.53;3.00;;;;;;;;;;5018881;28;20455;-75
2023/10/10 00:29:51;;;;;;;6.27;2.57;;;;;;;;;;5001363;28;20463;-76
2023/10/10 00:32:22;;;;;;;5.00;3.10;;;;;;;;;;5017796;28;20448;-77
2023/10/10 00:34:50;;;;;;;7.90;4.00;;;;;;;;;;5016519;28;20462;-77
2023/10/10 00:37:21;;;;;;;7.90;3.20;;;;;;;;;;5018093;28;20444;-77
2023/10/10 00:39:53;;;;;;;3.60;2.30;;;;;;;;;;5018743;28;20470;-76
2023/10/10 00:42:21;;;;;;;6.07;2.70;;;;;;;;;;5018000;28;20514;-76
2023/10/10 00:44:49;;;;;;;6.63;3.00;;;;;;;;;;5016074;28;20455;-76
2023/10/10 00:47:21;;;;;;;8.20;4.03;;;;;;;;;;5018253;28;20451;-77
2023/10/10 00:49:50;;;;;;;5.23;2.77;;;;;;;;;;5017162;28;20467;-76
2023/10/10 00:52:18;;;;;;;6.50;3.10;;;;;;;;;;5017258;28;20762;-76
2023/10/10 00:54:46;;;;;;;6.43;2.50;;;;;;;;;;5016710;28;20471;-75
2023/10/10 00:57:17;;;;;;;8.37;2.40;;;;;;;;;;5017076;28;20463;-77
2023/10/10 00:59:46;;;;;;;5.20;2.33;;;;;;;;;;5016949;28;20432;-77
2023/10/10 01:02:14;;;;;;;4.00;3.00;;;;;;;;;;5019878;28;20519;-76
2023/10/10 01:04:57;;;;;;;14.53;2.47;;;;;;;;;;5018947;28;20657;-76
2023/10/10 01:07:26;;;;;;;6.93;2.40;;;;;;;;;;5019229;28;20494;-77
2023/10/10 01:09:58;;;;;;;7.97;2.70;;;;;;;;;;5017841;28;20848;-77
2023/10/10 01:12:26;;;;;;;5.17;2.63;;;;;;;;;;5019507;28;20573;-77
2023/10/10 01:14:56;;;;;;;4.43;2.60;;;;;;;;;;5016757;28;20498;-76
2023/10/10 01:17:29;;;;;;;6.93;2.80;;;;;;;;;;5017030;28;20470;-78
2023/10/10 01:19:58;;;;;;;8.50;3.07;;;;;;;;;;5016550;28;20451;-77
2023/10/10 01:22:39;;;;;;;4.23;3.20;;;;;;;;;;5017408;28;20535;-76
2023/10/10 01:25:29;;;;;;;5.20;3.00;;;;;;;;;;5018449;28;20465;-76
2023/10/10 01:27:58;;;;;;;4.40;2.50;;;;;;;;;;5018765;28;20459;-77
2023/10/10 01:33:07;;;;;;;5.73;3.13;;;;;;;;;;5021565;28;20454;-76
2023/10/10 01:35:40;;;;;;;10.43;2.93;;;;;;;;;;5022290;28;20506;-77
2023/10/10 01:38:14;;;;;;;5.53;3.23;;;;;;;;;;5023626;28;20699;-75
2023/10/10 01:40:45;;;;;;;8.43;3.03;;;;;;;;;;5021583;28;20535;-76
2023/10/10 01:43:13;;;;;;;6.40;3.80;;;;;;;;;;5022653;28;20489;-76
2023/10/10 01:45:41;;;;;;;5.27;3.90;;;;;;;;;;5020686;28;20451;-77
2023/10/10 01:48:11;;;;;;;8.67;3.40;;;;;;;;;;5019626;28;20459;-77
2023/10/10 01:50:38;;;;;;;5.40;2.83;;;;;;;;;;5021559;28;21003;-77
2023/10/10 01:53:09;;;;;;;9.90;3.63;;;;;;;;;;5021705;28;20481;-77
2023/10/10 01:55:38;;;;;;;11.20;3.60;;;;;;;;;;5022381;28;20463;-76
2023/10/10 01:58:11;;;;;;;6.00;3.10;;;;;;;;;;5022893;28;20818;-77
2023/10/10 02:00:42;;;;;;;8.97;3.90;;;;;;;;;;5020387;28;20526;-77
2023/10/10 02:03:10;;;;;;;5.30;3.10;;;;;;;;;;5021375;28;20466;-76
2023/10/10 02:05:45;;;;;;;7.17;3.30;;;;;;;;;;5019948;28;20487;-75
2023/10/10 02:08:17;;;;;;;6.30;3.13;;;;;;;;;;5019059;28;20450;-75
2023/10/10 02:10:49;;;;;;;6.60;3.00;;;;;;;;;;5019080;28;20779;-76
2023/10/10 02:13:18;;;;;;;6.67;2.87;;;;;;;;;;5018461;28;20498;-77
2023/10/10 02:15:45;;;;;;;4.40;3.13;;;;;;;;;;5017648;28;20511;-76
2023/10/10 02:18:23;;;;;;;4.60;3.03;;;;;;;;;;5019800;28;20527;-77
2023/10/10 02:20:52;;;;;;;10.00;3.80;;;;;;;;;;5018015;28;20907;-77
2023/10/10 02:23:32;;;;;;;7.57;3.60;;;;;;;;;;5019780;28;20452;-76
2023/10/10 02:26:14;;;;;;;8.00;2.97;;;;;;;;;;5019907;28;20641;-77
2023/10/10 02:28:46;;;;;;;5.03;3.30;;;;;;;;;;5018843;28;20562;-75
2023/10/10 02:31:15;;;;;;;8.60;3.40;;;;;;;;;;5018539;28;20466;-77
2023/10/10 02:33:51;;;;;;;9.70;3.57;;;;;;;;;;5018128;28;20470;-75
2023/10/10 02:36:30;;;;;;;7.40;3.07;;;;;;;;;;5018972;28;20561;-78
2023/10/10 02:39:01;;;;;;;10.47;3.60;;;;;;;;;;5019980;28;20733;-77
2023/10/10 02:41:39;;;;;;;5.73;3.60;;;;;;;;;;5020453;28;20545;-78
2023/10/10 02:44:09;;;;;;;7.60;3.57;;;;;;;;;;5020313;28;20455;-77
2023/10/10 02:46:38;;;;;;;7.80;3.50;;;;;;;;;;5023090;28;20462;-75
2023/10/10 02:49:22;;;;;;;9.50;4.47;;;;;;;;;;5023022;28;20467;-76
2023/10/10 02:51:51;;;;;;;7.70;3.83;;;;;;;;;;5024094;28;20479;-76
2023/10/10 02:54:27;;;;;;;6.67;3.27;;;;;;;;;;5022715;28;20463;-76
2023/10/10 02:56:57;;;;;;;7.00;3.50;;;;;;;;;;5023078;28;20467;-77
2023/10/10 02:59:31;;;;;;;6.07;3.97;;;;;;;;;;5019688;28;20856;-75
2023/10/10 03:02:08;;;;;;;8.00;4.30;;;;;;;;;;5021391;28;20487;-75
2023/10/10 03:05:05;;;;;;;6.33;3.47;;;;;;;;;;5019801;28;20459;-78
2023/10/10 03:07:32;;;;;;;10.70;4.70;;;;;;;;;;5017099;28;20466;-76
2023/10/10 03:13:03;;;;;;;6.97;3.97;;;;;;;;;;5007398;28;20440;-75
2023/10/10 03:15:33;;;;;;;6.50;4.00;;;;;;;;;;5019322;28;20478;-77
2023/10/10 03:21:07;;;;;;;9.07;4.00;;;;;;;;;;5020589;28;20465;-77
2023/10/10 03:23:42;;;;;;;7.30;3.63;;;;;;;;;;5022527;28;20458;-76
2023/10/10 03:26:18;;;;;;;8.30;4.00;;;;;;;;;;5022935;28;20454;-77
2023/10/10 03:28:49;;;;;;;7.50;4.00;;;;;;;;;;5021902;28;20458;-78
2023/10/10 03:31:31;;;;;;;9.70;3.83;;;;;;;;;;5021646;28;20478;-76
2023/10/10 03:34:11;;;;;;;7.73;3.90;;;;;;;;;;5017600;28;20467;-76
2023/10/10 03:36:43;;;;;;;4.20;3.33;;;;;;;;;;5016798;28;20455;-77
2023/10/10 03:39:24;;;;;;;5.67;3.97;;;;;;;;;;5015570;28;20451;-76
2023/10/10 05:24:08;;;;;;;6.77;4.93;;;;;;;;;;5015386;28;20703;-76
2023/10/10 05:26:46;;;;;;;10.13;4.60;;;;;;;;;;5015705;28;20451;-76
2023/10/10 05:29:19;;;;;;;7.23;4.53;;;;;;;;;;5014460;28;20866;-76
2023/10/10 05:31:46;;;;;;;7.30;4.17;;;;;;;;;;5012307;28;20910;-76
2023/10/10 05:34:14;;;;;;;6.00;5.07;;;;;;;;;;5009021;28;20455;-75
2023/10/10 05:36:44;;;;;;;11.57;4.77;;;;;;;;;;5008129;28;20716;-76
2023/10/10 05:39:17;;;;;;;6.47;4.20;;;;;;;;;;5008352;28;20459;-75
2023/10/10 05:41:47;;;;;;;10.07;5.00;;;;;;;;;;5008161;28;21096;-75
2023/10/10 05:44:16;;;;;;;7.23;4.70;;;;;;;;;;5009045;28;20953;-76
2023/10/10 05:46:43;;;;;;;8.13;5.90;;;;;;;;;;5014896;28;20784;-75
2023/10/10 05:49:11;;;;;;;13.57;4.60;;;;;;;;;;5010131;28;20516;-76
2023/10/10 05:51:40;;;;;;;8.40;5.00;;;;;;;;;;5012709;28;20471;-75
2023/10/10 05:54:10;;;;;;;6.73;4.60;;;;;;;;;;5010488;28;20679;-76
2023/10/10 05:56:41;;;;;;;9.23;5.00;;;;;;;;;;5008936;28;20774;-76
2023/10/10 05:59:08;;;;;;;9.10;4.73;;;;;;;;;;5003858;28;20447;-76
2023/10/10 06:01:38;;;;;;;11.30;7.17;;;;;;;;;;5006678;28;20797;-76
2023/10/10 06:04:07;;;;;;;11.80;5.07;;;;;;;;;;5003797;28;20451;-74
2023/10/10 06:06:35;;;;;;;13.40;5.40;;;;;;;;;;5005249;28;20733;-76
2023/10/10 06:09:04;;;;;;;10.03;4.40;;;;;;;;;;5008503;28;20465;-76
2023/10/10 06:11:34;;;;;;;9.07;4.77;;;;;;;;;;5009173;28;20840;-76
2023/10/10 06:14:04;;;;;;;14.73;5.47;;;;;;;;;;5012435;28;20520;-74
2023/10/10 06:16:31;;;;;;;8.53;4.17;;;;;;;;;;5009414;28;21004;-75
2023/10/10 06:19:01;;;;;;;5.90;4.20;;;;;;;;;;5009442;28;20447;-76
2023/10/10 06:21:29;;;;;;;10.27;5.10;;;;;;;;;;5014650;28;20479;-76
2023/10/10 06:23:57;;;;;;;8.37;3.87;;;;;;;;;;5011953;28;20987;-76
2023/10/10 06:26:24;;;;;;;11.93;6.40;;;;;;;;;;4996968;28;20462;-75
2023/10/10 06:28:53;;;;;;;10.53;5.27;;;;;;;;;;5018727;28;20471;-74
2023/10/10 06:31:33;;;;;;;11.70;4.70;;;;;;;;;;5017193;28;20970;-76
2023/10/10 06:34:19;;;;;;;7.50;4.93;;;;;;;;;;5009695;28;20455;-75
2023/10/10 06:36:47;;;;;;;6.80;3.90;;;;;;;;;;5011329;28;20443;-76
2023/10/10 06:39:21;;;;;;;8.70;4.10;;;;;;;;;;5008664;28;20517;-75
2023/10/10 06:41:51;;;;;;;8.70;5.13;;;;;;;;;;5018421;28;20486;-77
2023/10/10 06:44:31;;;;;;;8.73;4.67;;;;;;;;;;5010327;28;20446;-77
2023/10/10 06:47:08;;;;;;;8.63;6.80;;;;;;;;;;5020984;28;20446;-75
2023/10/10 06:49:53;;;;;;;10.57;4.90;;;;;;;;;;5031268;28;20462;-76
2023/10/10 06:52:23;;;;;;;9.20;5.50;;;;;;;;;;5029379;28;20450;-74
2023/10/10 06:54:55;;;;;;;8.47;5.83;;;;;;;;;;5030851;28;20524;-74
2023/10/10 06:57:35;;;;;;;11.87;5.53;;;;;;;;;;5028381;28;20464;-74
2023/10/10 07:02:59;;;;;;;12.73;6.80;;;;;;;;;;5002976;28;20487;-74
2023/10/10 07:05:27;;;;;;;11.37;5.57;;;;;;;;;;5035370;28;20464;-75
2023/10/10 07:07:58;;;;;;;13.40;5.83;;;;;;;;;;5031324;28;20457;-74
2023/10/10 07:10:32;;;;;;;7.77;4.70;;;;;;;;;;5030813;28;20453;-75
2023/10/10 07:13:00;;;;;;;9.60;5.63;;;;;;;;;;5034054;28;21179;-74
2023/10/10 07:15:29;;;;;;;10.10;5.17;;;;;;;;;;5019425;28;20463;-75
2023/10/10 07:18:14;;;;;;;9.43;5.30;;;;;;;;;;5031907;28;20544;-75
2023/10/10 07:23:36;;;;;;;13.00;5.60;;;;;;;;;;5036780;28;20473;-74
2023/10/10 07:26:05;;;;;;;16.00;6.03;;;;;;;;;;5039485;28;20449;-76
2023/10/10 07:28:47;;;;;;;12.13;5.47;;;;;;;;;;5031263;28;20584;-76
2023/10/10 07:31:17;;;;;;;9.37;5.83;;;;;;;;;;5032694;28;20784;-75
2023/10/10 07:33:55;;;;;;;8.70;5.80;;;;;;;;;;5030933;28;20471;-74
2023/10/10 07:36:32;;;;;;;9.70;6.23;;;;;;;;;;5033778;28;20494;-75
2023/10/10 07:41:45;;;;;;;9.87;5.50;;;;;;;;;;5017610;28;20477;-76
2023/10/10 07:44:16;;;;;;;10.73;6.67;;;;;;;;;;5026283;28;20554;-76
2023/10/10 07:47:07;;;;;;;15.20;9.93;;;;;;;;;;5028618;28;20520;-75
2023/10/10 07:49:33;;;;;;;10.07;5.20;;;;;;;;;;5025828;28;20473;-76
2023/10/10 07:52:02;;;;;;;11.83;6.87;;;;;;;;;;5034253;28;20455;-77
2023/10/10 07:54:34;;;;;;;8.93;5.33;;;;;;;;;;5034146;28;20450;-76
2023/10/10 07:57:07;;;;;;;11.43;5.40;;;;;;;;;;5033238;28;20609;-76
2023/10/10 07:59:36;;;;;;;8.00;5.87;;;;;;;;;;5024956;28;20530;-80
2023/10/10 08:02:24;;;;;;;8.07;5.00;;;;;;;;;;5021608;28;20475;-80
2023/10/10 08:05:09;;;;;;;13.00;5.10;;;;;;;;;;5021173;28;20553;-76
2023/10/10 08:07:45;;;;;;;6.43;4.20;;;;;;;;;;5030917;28;20493;-79
2023/10/10 08:10:29;;;;;;;7.23;4.20;;;;;;;;;;5025698;28;20469;-78
2023/10/10 08:12:58;;;;;;;7.83;4.40;;;;;;;;;;5022544;28;20490;-78
2023/10/10 08:15:26;;;;;;;7.53;3.50;;;;;;;;;;5037210;28;20789;-79
2023/10/10 08:17:58;;;;;;;7.30;5.00;;;;;;;;;;5032860;28;20528;-78
2023/10/10 08:21:08;;;;;;;6.03;4.17;;;;;;;;;;5030498;28;20442;-78
2023/10/10 08:23:28;;;;;;;8.93;5.10;;;;;;;;;;5033838;28;20536;-76
2023/10/10 08:25:56;;;;;;;7.63;4.80;;;;;;;;;;5029064;28;20501;-76
2023/10/10 08:28:25;;;;;;;8.83;4.30;;;;;;;;;;5034396;28;20468;-79
2023/10/10 08:30:54;;;;;;;9.93;5.57;;;;;;;;;;5024958;28;20929;-79
2023/10/10 08:39:55;;;;;;;10.00;4.97;;;;;;;;;;5023569;28;20514;-79
2023/10/10 08:42:26;;;;;;;11.13;5.70;;;;;;;;;;5029191;28;20482;-81
2023/10/10 08:44:55;;;;;;;10.20;6.10;;;;;;;;;;5027482;28;20458;-78
2023/10/10 08:47:32;;;;;;;7.33;4.33;;;;;;;;;;5029671;28;20492;-76
2023/10/10 08:50:00;;;;;;;9.13;5.43;;;;;;;;;;5030585;28;20768;-78
2023/10/10 08:52:33;;;;;;;7.80;5.00;;;;;;;;;;5024664;28;20463;-77
2023/10/10 08:55:13;;;;;;;8.23;4.33;;;;;;;;;;5025862;28;20462;-77
2023/10/10 08:58:03;;;;;;;8.30;4.73;;;;;;;;;;5027142;28;20503;-78
2023/10/10 09:03:46;;;;;;;8.03;5.53;;;;;;;;;;4994117;28;20509;-76
2023/10/10 09:06:20;;;;;;;7.73;4.87;;;;;;;;;;5028211;28;20466;-77
2023/10/10 09:35:19;;;;;;;7.00;4.43;;;;;;;;;;4835670;29;20551;-76
2023/10/10 09:43:35;;;;;;;7.17;5.00;;;;;;;;;;5005058;23;20481;-77
2023/10/10 09:46:11;;;;;;;8.83;4.57;;;;;;;;;;4973309;28;20476;-77
2023/10/10 09:52:47;;;;;;;7.50;4.30;;;;;;;;;;4960601;29;20453;-76
2023/10/10 09:54:25;;;;;;;7.20;3.40;;;;;;;;;;4976387;28;20449;-79
2023/10/10 09:56:54;;;;;;;6.17;2.93;;;;;;;;;;4983160;28;20515;-78
2023/10/10 09:59:28;;;;;;;7.10;3.53;;;;;;;;;;4981218;28;20782;-76
2023/10/10 10:02:06;;;;;;;6.80;3.27;;;;;;;;;;4984662;28;20478;-77
2023/10/10 10:04:41;;;;;;;5.77;3.10;;;;;;;;;;4985347;28;20472;-77
2023/10/10 10:07:24;;;;;;;5.50;3.00;;;;;;;;;;4982027;28;20452;-76
2023/10/10 10:10:33;;;;;;;5.53;2.50;;;;;;;;;;4973818;28;20466;-77
2023/10/10 10:13:19;;;;;;;4.87;2.77;;;;;;;;;;4903169;29;20475;-78
2023/10/10 10:16:08;;;;;;;4.87;2.30;;;;;;;;;;4907704;29;20693;-77
2023/10/10 10:18:45;;;;;;;4.47;2.40;;;;;;;;;;4943611;28;20628;-77
2023/10/10 10:21:27;;;;;;;4.27;1.70;;;;;;;;;;4970061;28;20469;-77
2023/10/10 10:24:15;;;;;;;4.47;1.57;;;;;;;;;;4996598;28;20784;-77
2023/10/10 10:26:45;;;;;;;3.67;1.73;;;;;;;;;;4969464;28;20469;-75
2023/10/10 10:29:22;;;;;;;3.53;2.03;;;;;;;;;;4982368;28;20473;-77
2023/10/10 10:31:57;;;;;;;3.80;1.73;;;;;;;;;;4970751;28;20461;-76
2023/10/10 10:34:31;;;;;;;5.90;1.73;;;;;;;;;;4982615;28;20878;-76
2023/10/10 10:37:06;;;;;;;6.73;2.33;;;;;;;;;;4965244;28;20519;-77
2023/10/10 10:39:35;;;;;;;5.70;4.10;;;;;;;;;;4975337;28;20507;-75
2023/10/10 10:42:11;;;;;;;5.00;3.23;;;;;;;;;;4969363;28;20468;-76
2023/10/10 10:44:54;;;;;;;6.40;2.30;;;;;;;;;;4955334;29;20481;-74
2023/10/10 10:47:45;;;;;;;4.40;2.40;;;;;;;;;;4970986;28;20927;-75
2023/10/10 10:50:29;;;;;;;7.20;2.40;;;;;;;;;;4964498;28;20507;-75
2023/10/10 10:53:08;;;;;;;6.97;1.93;;;;;;;;;;4980701;28;20455;-75
2023/10/10 10:55:41;;;;;;;8.50;4.37;;;;;;;;;;4973982;28;20465;-76
2023/10/10 10:58:20;;;;;;;4.97;2.77;;;;;;;;;;4973999;28;20737;-76
2023/10/10 11:03:37;;;;;;;4.40;2.07;;;;;;;;;;4961927;28;20505;-75
2023/10/10 11:06:09;;;;;;;7.80;2.67;;;;;;;;;;4973656;28;21156;-74
2023/10/10 11:08:54;;;;;;;4.10;2.77;;;;;;;;;;4966747;28;20466;-76
2023/10/10 11:11:27;;;;;;;5.70;2.20;;;;;;;;;;4973613;28;20942;-76
2023/10/10 11:14:00;;;;;;;4.43;2.13;;;;;;;;;;4973255;28;20461;-76
2023/10/10 11:16:36;;;;;;;4.30;1.80;;;;;;;;;;4963843;28;20919;-77
2023/10/10 11:19:25;;;;;;;4.50;1.97;;;;;;;;;;4966996;28;20488;-76
2023/10/10 11:21:55;;;;;;;3.90;2.10;;;;;;;;;;4967352;28;20484;-75
2023/10/10 11:24:25;;;;;;;3.90;1.83;;;;;;;;;;4972438;28;20488;-75
2023/10/10 11:27:07;;;;;;;4.53;2.10;;;;;;;;;;4980402;28;20558;-76
2023/10/10 11:29:41;;;;;;;5.23;1.90;;;;;;;;;;4969589;28;20457;-77
2023/10/10 11:32:11;;;;;;;5.07;3.23;;;;;;;;;;4966897;28;20472;-76
2023/10/10 11:34:44;;;;;;;10.53;4.03;;;;;;;;;;4975519;28;20461;-75
2023/10/10 11:37:20;;;;;;;8.13;4.20;;;;;;;;;;4965980;28;20473;-76
2023/10/10 11:39:53;;;;;;;3.77;1.80;;;;;;;;;;4958467;29;20501;-75
2023/10/10 11:42:30;;;;;;;20.83;14.20;;;;;;;;;;4965498;28;20466;-75
2023/10/10 11:45:10;;;;;;;20.47;16.33;;;;;;;;;;4976828;28;20540;-77
2023/10/10 11:47:44;;;;;;;11.53;7.17;;;;;;;;;;4967697;28;20564;-76
2023/10/10 11:50:17;;;;;;;7.33;3.93;;;;;;;;;;4972675;28;20483;-75
2023/10/10 11:52:53;;;;;;;5.40;3.47;;;;;;;;;;4974121;28;20469;-76
2023/10/10 11:55:21;;;;;;;3.80;2.27;;;;;;;;;;4973111;28;20543;-76
2023/10/10 11:57:50;;;;;;;7.30;3.87;;;;;;;;;;4967969;28;20469;-77
2023/10/10 12:00:22;;;;;;;5.10;2.50;;;;;;;;;;4975399;28;20491;-77
2023/10/10 12:02:57;;;;;;;4.20;2.67;;;;;;;;;;4981219;28;20464;-78
2023/10/10 12:08:15;;;;;;;8.23;3.30;;;;;;;;;;4962593;28;20456;-77
2023/10/10 12:10:52;;;;;;;5.77;3.40;;;;;;;;;;4975770;28;20454;-77
2023/10/10 12:14:02;;;;;;;;;;;;;;;;;;;;;
2023/10/10 12:16:39;;;;;;;5.53;2.60;;;;;;;;;;4961998;28;20625;-77
2023/10/10 12:19:07;;;;;;;5.83;3.03;;;;;;;;;;4961860;28;20495;-77
2023/10/10 12:21:37;;;;;;;4.57;2.67;;;;;;;;;;4974711;28;20509;-78
2023/10/10 12:24:35;;;;;;;5.00;2.67;;;;;;;;;;4977706;28;20526;-76
2023/10/10 12:27:19;;;;;;;12.23;5.03;;;;;;;;;;4975237;28;20472;-76
2023/10/10 12:29:58;;;;;;;5.50;2.70;;;;;;;;;;4978106;28;20535;-75
2023/10/10 12:32:27;;;;;;;5.90;2.70;;;;;;;;;;4962552;28;20458;-76
2023/10/10 12:34:59;;;;;;;5.60;3.43;;;;;;;;;;4950507;28;20473;-77
2023/10/10 12:37:27;;;;;;;9.73;5.87;;;;;;;;;;4979625;28;20753;-76
2023/10/10 12:39:56;;;;;;;5.40;2.90;;;;;;;;;;4961750;28;20477;-76
2023/10/10 12:42:25;;;;;;;5.87;3.60;;;;;;;;;;4964184;28;20496;-77
2023/10/10 12:45:01;;;;;;;4.47;3.10;;;;;;;;;;4974687;28;20488;-76
2023/10/10 12:47:34;;;;;;;6.50;3.67;;;;;;;;;;4968183;28;20467;-76
2023/10/10 12:50:13;;;;;;;5.90;4.00;;;;;;;;;;4983226;28;21074;-76
2023/10/10 12:52:46;;;;;;;4.53;3.23;;;;;;;;;;4978782;28;21163;-78
2023/10/10 12:55:17;;;;;;;5.00;2.70;;;;;;;;;;4976731;28;20528;-76
2023/10/10 12:57:48;;;;;;;9.27;4.90;;;;;;;;;;4973830;28;20485;-77
2023/10/10 13:00:33;;;;;;;4.87;2.77;;;;;;;;;;4967846;28;20864;-80
2023/10/10 13:03:06;;;;;;;3.77;2.53;;;;;;;;;;4967472;28;20505;-78
2023/10/10 13:05:38;;;;;;;7.27;2.83;;;;;;;;;;4971624;28;20457;-76
2023/10/10 13:08:07;;;;;;;4.03;2.30;;;;;;;;;;4970916;28;20457;-78
2023/10/10 13:10:38;;;;;;;6.07;2.90;;;;;;;;;;4984354;28;20736;-77
2023/10/10 13:13:07;;;;;;;4.53;2.60;;;;;;;;;;4973886;28;20469;-76
2023/10/10 13:16:07;;;;;;;8.60;3.40;;;;;;;;;;4964394;28;20465;-76
2023/10/10 13:18:43;;;;;;;6.43;2.77;;;;;;;;;;4963889;28;20478;-76
2023/10/10 13:21:19;;;;;;;5.43;2.30;;;;;;;;;;4966055;28;20453;-77
2023/10/10 13:23:48;;;;;;;4.60;3.10;;;;;;;;;;4959395;28;20490;-77
2023/10/10 13:26:20;;;;;;;5.33;3.17;;;;;;;;;;4970705;28;20539;-76
2023/10/10 13:28:49;;;;;;;10.87;3.60;;;;;;;;;;4972516;28;20461;-76
2023/10/10 13:31:18;;;;;;;4.93;2.77;;;;;;;;;;4974784;28;20484;-77
2023/10/10 13:33:47;;;;;;;5.03;2.90;;;;;;;;;;4965180;28;20470;-77
2023/10/10 13:36:28;;;;;;;5.20;3.03;;;;;;;;;;4968703;28;20548;-76
2023/10/10 13:39:05;;;;;;;5.67;3.47;;;;;;;;;;4965102;28;20548;-76
2023/10/10 13:41:35;;;;;;;4.87;3.40;;;;;;;;;;4972870;28;20772;-75
2023/10/10 13:44:08;;;;;;;4.60;2.80;;;;;;;;;;4974894;28;20575;-75
2023/10/10 13:46:47;;;;;;;5.30;3.40;;;;;;;;;;4965051;28;20590;-76
2023/10/10 13:49:26;;;;;;;6.30;3.60;;;;;;;;;;4975229;28;20516;-75
2023/10/10 13:51:59;;;;;;;6.80;3.63;;;;;;;;;;4976051;28;20470;-76
2023/10/10 13:54:41;;;;;;;6.00;3.77;;;;;;;;;;4972317;28;20513;-76
2023/10/10 13:57:18;;;;;;;6.10;3.20;;;;;;;;;;4966668;28;20473;-77
2023/10/10 13:59:49;;;;;;;5.90;3.37;;;;;;;;;;4980217;28;20465;-79
2023/10/10 14:02:39;;;;;;;5.90;4.67;;;;;;;;;;4979417;28;20474;-77
2023/10/10 14:05:19;;;;;;;5.67;3.97;;;;;;;;;;4972811;28;20484;-78
2023/10/10 14:14:32;;;;;;;9.20;5.30;;;;;;;;;;4981869;28;20463;-76
2023/10/10 14:17:28;;;;;;;5.93;3.70;;;;;;;;;;4957492;28;20498;-77
2023/10/10 14:20:19;;;;;;;13.90;4.70;;;;;;;;;;4970425;28;20519;-74
2023/10/10 14:22:49;;;;;;;9.43;7.00;;;;;;;;;;4962817;28;20475;-76
2023/10/10 14:25:17;;;;;;;8.70;5.87;;;;;;;;;;4971177;28;20563;-77
2023/10/10 14:27:49;;;;;;;9.20;4.87;;;;;;;;;;4972909;28;20452;-76
2023/10/10 14:30:23;;;;;;;7.70;5.53;;;;;;;;;;4978304;28;20540;-76
2023/10/10 14:32:54;;;;;;;10.00;4.83;;;;;;;;;;4966415;28;20461;-76
2023/10/10 14:35:24;;;;;;;7.27;5.00;;;;;;;;;;4969445;28;20913;-77
2023/10/10 14:37:56;;;;;;;8.70;5.90;;;;;;;;;;4968421;28;20796;-77
2023/10/10 14:40:36;;;;;;;8.47;5.60;;;;;;;;;;4970820;28;20869;-76
2023/10/10 14:43:11;;;;;;;8.80;5.97;;;;;;;;;;4972483;28;20571;-77
2023/10/10 14:45:48;;;;;;;14.03;7.30;;;;;;;;;;4971151;28;20519;-76
2023/10/10 14:48:18;;;;;;;10.63;6.07;;;;;;;;;;4967930;28;20462;-76
2023/10/10 14:50:52;;;;;;;7.80;6.03;;;;;;;;;;4974753;28;20473;-76
2023/10/10 14:53:22;;;;;;;13.23;7.30;;;;;;;;;;4963208;28;20980;-76
2023/10/10 14:55:52;;;;;;;10.87;7.17;;;;;;;;;;4975742;28;21122;-75
2023/10/10 14:58:23;;;;;;;11.17;8.10;;;;;;;;;;4969607;28;20556;-76
2023/10/10 15:00:56;;;;;;;17.00;9.70;;;;;;;;;;4969134;28;20471;-76
2023/10/10 15:03:27;;;;;;;13.03;9.20;;;;;;;;;;4963681;28;20450;-76
2023/10/10 15:06:06;;;;;;;15.57;12.77;;;;;;;;;;4974923;28;20541;-74
2023/10/10 15:08:43;;;;;;;17.27;10.10;;;;;;;;;;4962653;28;20698;-76
2023/10/10 15:11:16;;;;;;;14.27;10.27;;;;;;;;;;4973102;28;20467;-76
2023/10/10 15:13:46;;;;;;;11.57;9.17;;;;;;;;;;4966309;28;20456;-77
2023/10/10 15:16:16;;;;;;;13.77;8.97;;;;;;;;;;4963754;28;20624;-76
2023/10/10 15:18:44;;;;;;;17.37;10.43;;;;;;;;;;4972794;28;20524;-75
2023/10/10 15:21:17;;;;;;;16.13;9.50;;;;;;;;;;4976230;28;20469;-76
2023/10/10 15:23:46;;;;;;;13.77;9.50;;;;;;;;;;4974187;28;20465;-76
2023/10/10 15:26:19;;;;;;;14.40;10.00;;;;;;;;;;4970788;28;20504;-75
2023/10/10 15:28:52;;;;;;;16.40;11.97;;;;;;;;;;4960308;28;20902;-75
2023/10/10 15:31:24;;;;;;;17.97;11.53;;;;;;;;;;4973119;28;20520;-75
2023/10/10 15:33:52;;;;;;;19.40;13.43;;;;;;;;;;4975885;28;20508;-76
2023/10/10 15:36:22;;;;;;;16.97;11.83;;;;;;;;;;4972220;28;20455;-75
2023/10/10 15:38:50;;;;;;;17.57;11.47;;;;;;;;;;4967810;28;20465;-76
2023/10/10 15:41:19;;;;;;;21.53;12.53;;;;;;;;;;4978545;28;20461;-76
2023/10/10 15:43:48;;;;;;;18.23;12.90;;;;;;;;;;4976383;28;20554;-75
2023/10/10 15:46:16;;;;;;;17.60;13.10;;;;;;;;;;4969861;28;20539;-76
2023/10/10 15:48:53;;;;;;;18.43;12.60;;;;;;;;;;4973959;28;20449;-76
2023/10/10 15:51:27;;;;;;;21.47;13.80;;;;;;;;;;4975051;28;20452;-76
2023/10/10 15:54:02;;;;;;;17.60;12.03;;;;;;;;;;4980720;28;20484;-74
2023/10/10 15:56:30;;;;;;;22.80;15.40;;;;;;;;;;4985568;28;20599;-79
2023/10/10 15:59:00;;;;;;;21.83;13.90;;;;;;;;;;4987236;28;20489;-76
2023/10/10 16:01:35;;;;;;;18.83;13.57;;;;;;;;;;4975481;28;20473;-76
2023/10/10 16:04:12;;;;;;;17.80;13.30;;;;;;;;;;4979657;28;20457;-79
2023/10/10 16:06:46;;;;;;;22.63;14.07;;;;;;;;;;4965279;28;20457;-78
2023/10/10 16:09:20;;;;;;;21.20;14.00;;;;;;;;;;4965451;28;20468;-78
2023/10/10 16:11:52;;;;;;;21.83;15.97;;;;;;;;;;4970430;28;20568;-78
2023/10/10 16:14:25;;;;;;;20.93;16.20;;;;;;;;;;4975247;28;20500;-79
2023/10/10 16:16:53;;;;;;;28.97;19.00;;;;;;;;;;4983729;28;20468;-77
2023/10/10 16:19:24;;;;;;;24.07;19.93;;;;;;;;;;4976576;28;20469;-77
2023/10/10 16:21:54;;;;;;;32.50;20.07;;;;;;;;;;4974715;28;20570;-78
2023/10/10 16:24:24;;;;;;;23.10;16.80;;;;;;;;;;4980709;28;20484;-76
2023/10/10 16:26:58;;;;;;;27.13;15.63;;;;;;;;;;4972704;28;20785;-77
2023/10/10 16:29:40;;;;;;;27.70;16.80;;;;;;;;;;4979652;28;20468;-78
2023/10/10 16:32:17;;;;;;;22.70;17.67;;;;;;;;;;4987377;28;20464;-77
2023/10/10 16:34:48;;;;;;;24.47;16.50;;;;;;;;;;4986837;28;20457;-78
2023/10/10 16:37:20;;;;;;;25.17;17.67;;;;;;;;;;4985399;28;20551;-79
2023/10/10 16:39:49;;;;;;;30.33;19.20;;;;;;;;;;4991012;28;20540;-80
2023/10/10 16:42:19;;;;;;;55.30;30.23;;;;;;;;;;4986246;28;20449;-78
2023/10/10 16:44:47;;;;;;;38.70;19.97;;;;;;;;;;4971070;28;20478;-78
2023/10/10 16:47:16;;;;;;;23.37;15.97;;;;;;;;;;4948915;29;20462;-77
2023/10/10 16:49:44;;;;;;;26.90;17.73;;;;;;;;;;4955787;29;20724;-78
2023/10/10 16:52:12;;;;;;;35.80;25.43;;;;;;;;;;4959133;29;20500;-74
2023/10/10 16:54:45;;;;;;;25.83;16.17;;;;;;;;;;4953122;29;20955;-76
2023/10/10 16:57:13;;;;;;;28.80;19.17;;;;;;;;;;4960153;28;20468;-76
2023/10/10 16:59:42;;;;;;;21.63;16.90;;;;;;;;;;4964575;28;20493;-77
2023/10/10 17:02:13;;;;;;;26.67;18.00;;;;;;;;;;4973992;28;20478;-77
2023/10/10 17:04:42;;;;;;;26.67;18.43;;;;;;;;;;4980555;28;20559;-77
2023/10/10 17:07:11;;;;;;;28.80;19.30;;;;;;;;;;4982538;28;20464;-79
2023/10/10 17:09:39;;;;;;;35.73;18.10;;;;;;;;;;4982314;28;20465;-78
2023/10/10 17:12:17;;;;;;;24.10;17.00;;;;;;;;;;4982977;28;20508;-80
2023/10/10 17:14:45;;;;;;;23.70;15.47;;;;;;;;;;4978709;28;20450;-80
2023/10/10 17:20:00;;;;;;;24.00;17.23;;;;;;;;;;4974527;28;20546;-77
2023/10/10 17:22:30;;;;;;;21.40;16.03;;;;;;;;;;4983751;28;21038;-78
2023/10/10 17:25:13;;;;;;;25.50;17.40;;;;;;;;;;4979704;28;20492;-77
2023/10/10 17:27:51;;;;;;;23.80;15.83;;;;;;;;;;4984062;28;20488;-81
2023/10/10 17:30:21;;;;;;;34.57;20.77;;;;;;;;;;4986034;28;20457;-79
2023/10/10 17:32:51;;;;;;;27.80;18.50;;;;;;;;;;4978582;28;20476;-77
2023/10/10 17:35:18;;;;;;;22.40;15.93;;;;;;;;;;4972873;28;20496;-78
2023/10/10 17:37:46;;;;;;;28.27;20.93;;;;;;;;;;4979486;28;20922;-78
2023/10/10 17:40:16;;;;;;;26.23;16.80;;;;;;;;;;4979632;28;20459;-78
2023/10/10 17:42:47;;;;;;;27.60;18.97;;;;;;;;;;4961954;28;20533;-77
2023/10/10 17:45:14;;;;;;;37.03;21.50;;;;;;;;;;4957566;29;20817;-78
2023/10/10 17:47:42;;;;;;;40.77;27.60;;;;;;;;;;4955037;28;20528;-78
2023/10/10 17:50:10;;;;;;;35.90;23.27;;;;;;;;;;4981477;28;20480;-78
2023/10/10 17:52:38;;;;;;;26.00;16.40;;;;;;;;;;4981462;28;20449;-77
2023/10/10 17:55:08;;;;;;;26.70;18.70;;;;;;;;;;4979250;28;20892;-77
2023/10/10 17:57:41;;;;;;;27.87;18.10;;;;;;;;;;4981345;28;20447;-77
2023/10/10 18:00:13;;;;;;;27.13;17.10;;;;;;;;;;4984676;28;20531;-78
2023/10/10 18:02:46;;;;;;;26.50;16.67;;;;;;;;;;4984776;28;20520;-76
2023/10/10 18:05:16;;;;;;;25.13;16.40;;;;;;;;;;4977389;28;20560;-77
2023/10/10 18:07:45;;;;;;;24.23;16.30;;;;;;;;;;4970619;29;20477;-78
2023/10/10 18:10:16;;;;;;;23.20;16.60;;;;;;;;;;4965775;29;20458;-79
2023/10/10 18:12:43;;;;;;;26.03;17.77;;;;;;;;;;4963544;29;20457;-77